sensor_id;sensor_type;location;lat;lon;timestamp;pressure;altitude;pressure_sealevel;temperature;humidity
11676;BME280;5894;42.768;23.404;2024-03-07T00:00:19;95477.81;;;8.68;100.00
11676;BME280;5894;42.768;23.404;2024-03-07T00:02:48;95472.84;;;8.67;100.00
11676;BME280;5894;42.768;23.404;2024-03-07T00:05:16;95475.44;;;8.53;100.00
11676;BME280;5894;42.768;23.404;2024-03-07T00:07:44;95472.97;;;8.43;100.00
11676;BME280;5894;42.768;23.404;2024-03-07T00:10:12;95475.81;;;8.46;100.00
11676;BME280;5894;42.768;23.404;2024-03-07T00:12:40;95478.34;;;8.52;100.00
11676;BME280;5894;42.768;23.404;2024-03-07T00:15:09;95467.56;;;8.67;100.00
11676;BME280;5894;42.768;23.404;2024-03-07T00:17:38;95474.19;;;8.64;100.00
11676;BME280;5894;42.768;23.404;2024-03-07T00:20:08;95471.38;;;8.61;100.00
11676;BME280;5894;42.768;23.404;2024-03-07T00:22:39;95463.28;;;8.57;100.00
11676;BME280;5894;42.768;23.404;2024-03-07T00:25:07;95408.69;;;8.08;100.00
11676;BME280;5894;42.768;23.404;2024-03-07T00:27:35;95456.38;;;8.61;100.00
11676;BME280;5894;42.768;23.404;2024-03-07T00:30:04;95458.88;;;8.53;100.00
11676;BME280;5894;42.768;23.404;2024-03-07T00:32:34;95460.84;;;8.47;100.00
11676;BME280;5894;42.768;23.404;2024-03-07T00:35:07;95424.38;;;8.27;100.00
11676;BME280;5894;42.768;23.404;2024-03-07T00:37:34;95455.78;;;8.51;100.00
11676;BME280;5894;42.768;23.404;2024-03-07T00:40:02;95448.94;;;8.36;100.00
11676;BME280;5894;42.768;23.404;2024-03-07T00:42:29;95458.50;;;8.45;100.00
11676;BME280;5894;42.768;23.404;2024-03-07T00:44:56;95456.34;;;8.48;100.00
11676;BME280;5894;42.768;23.404;2024-03-07T00:47:24;95453.41;;;8.35;100.00
11676;BME280;5894;42.768;23.404;2024-03-07T00:49:51;95455.53;;;8.33;100.00
11676;BME280;5894;42.768;23.404;2024-03-07T00:52:21;95454.13;;;8.22;100.00
11676;BME280;5894;42.768;23.404;2024-03-07T00:54:48;95439.81;;;8.15;100.00
11676;BME280;5894;42.768;23.404;2024-03-07T00:57:15;95446.00;;;8.05;100.00
11676;BME280;5894;42.768;23.404;2024-03-07T00:59:42;95436.84;;;8.02;100.00
11676;BME280;5894;42.768;23.404;2024-03-07T01:02:12;95438.97;;;8.00;100.00
11676;BME280;5894;42.768;23.404;2024-03-07T01:04:40;95425.84;;;8.00;100.00
11676;BME280;5894;42.768;23.404;2024-03-07T01:07:08;95428.56;;;7.95;100.00
11676;BME280;5894;42.768;23.404;2024-03-07T01:09:36;95426.78;;;7.91;100.00
11676;BME280;5894;42.768;23.404;2024-03-07T01:12:04;95423.69;;;7.89;100.00
11676;BME280;5894;42.768;23.404;2024-03-07T01:14:31;95400.69;;;7.67;100.00
11676;BME280;5894;42.768;23.404;2024-03-07T01:16:59;95418.03;;;7.82;100.00
11676;BME280;5894;42.768;23.404;2024-03-07T01:19:26;95422.97;;;7.83;100.00
11676;BME280;5894;42.768;23.404;2024-03-07T01:21:53;95422.00;;;7.79;100.00
11676;BME280;5894;42.768;23.404;2024-03-07T01:24:20;95420.94;;;7.80;100.00
11676;BME280;5894;42.768;23.404;2024-03-07T01:26:49;95417.53;;;7.80;100.00
11676;BME280;5894;42.768;23.404;2024-03-07T01:29:16;95415.13;;;7.83;100.00
11676;BME280;5894;42.768;23.404;2024-03-07T01:31:44;95416.28;;;7.77;100.00
11676;BME280;5894;42.768;23.404;2024-03-07T01:34:11;95418.13;;;7.90;100.00
11676;BME280;5894;42.768;23.404;2024-03-07T01:36:37;95421.06;;;7.89;100.00
11676;BME280;5894;42.768;23.404;2024-03-07T01:39:04;95413.38;;;7.92;100.00
11676;BME280;5894;42.768;23.404;2024-03-07T01:41:32;95416.66;;;7.84;100.00
11676;BME280;5894;42.768;23.404;2024-03-07T01:44:01;95415.31;;;7.87;100.00
11676;BME280;5894;42.768;23.404;2024-03-07T01:46:28;95414.13;;;7.79;100.00
11676;BME280;5894;42.768;23.404;2024-03-07T01:48:56;95408.00;;;7.84;100.00
11676;BME280;5894;42.768;23.404;2024-03-07T01:51:22;95410.91;;;7.82;100.00
11676;BME280;5894;42.768;23.404;2024-03-07T01:53:50;95407.34;;;7.92;100.00
11676;BME280;5894;42.768;23.404;2024-03-07T01:56:20;95414.16;;;7.93;100.00
11676;BME280;5894;42.768;23.404;2024-03-07T01:58:49;95410.19;;;7.95;100.00
11676;BME280;5894;42.768;23.404;2024-03-07T02:01:20;95421.19;;;7.97;100.00
11676;BME280;5894;42.768;23.404;2024-03-07T02:03:47;95420.81;;;8.04;100.00
11676;BME280;5894;42.768;23.404;2024-03-07T02:06:14;95334.28;;;7.48;100.00
11676;BME280;5894;42.768;23.404;2024-03-07T02:08:41;95421.03;;;8.07;100.00
11676;BME280;5894;42.768;23.404;2024-03-07T02:11:09;95428.91;;;8.07;100.00
11676;BME280;5894;42.768;23.404;2024-03-07T02:13:36;95420.41;;;7.97;100.00
11676;BME280;5894;42.768;23.404;2024-03-07T02:16:03;95424.00;;;8.01;100.00
11676;BME280;5894;42.768;23.404;2024-03-07T02:18:33;95421.06;;;7.89;100.00
11676;BME280;5894;42.768;23.404;2024-03-07T02:21:06;95418.06;;;7.95;100.00
11676;BME280;5894;42.768;23.404;2024-03-07T02:23:33;95409.63;;;7.98;100.00
11676;BME280;5894;42.768;23.404;2024-03-07T02:26:00;95415.16;;;7.97;100.00
11676;BME280;5894;42.768;23.404;2024-03-07T02:28:27;95409.78;;;7.88;100.00
11676;BME280;5894;42.768;23.404;2024-03-07T02:30:54;95332.63;;;7.38;100.00
11676;BME280;5894;42.768;23.404;2024-03-07T02:33:22;95406.06;;;7.76;100.00
11676;BME280;5894;42.768;23.404;2024-03-07T02:35:49;95399.31;;;7.69;100.00
11676;BME280;5894;42.768;23.404;2024-03-07T02:38:17;95406.22;;;7.65;100.00
11676;BME280;5894;42.768;23.404;2024-03-07T02:40:45;95406.47;;;7.83;100.00
11676;BME280;5894;42.768;23.404;2024-03-07T02:43:13;95420.94;;;7.80;100.00
11676;BME280;5894;42.768;23.404;2024-03-07T02:45:40;95423.38;;;7.77;100.00
11676;BME280;5894;42.768;23.404;2024-03-07T02:48:07;95427.34;;;7.74;100.00
11676;BME280;5894;42.768;23.404;2024-03-07T02:50:35;95432.59;;;7.74;100.00
11676;BME280;5894;42.768;23.404;2024-03-07T02:53:03;95437.00;;;7.79;100.00
11676;BME280;5894;42.768;23.404;2024-03-07T02:55:32;95429.66;;;7.76;100.00
11676;BME280;5894;42.768;23.404;2024-03-07T02:57:59;95440.44;;;7.74;100.00
11676;BME280;5894;42.768;23.404;2024-03-07T03:00:27;95435.84;;;7.66;100.00
11676;BME280;5894;42.768;23.404;2024-03-07T03:02:55;95445.84;;;7.64;100.00
11676;BME280;5894;42.768;23.404;2024-03-07T03:05:22;95441.38;;;7.64;100.00
11676;BME280;5894;42.768;23.404;2024-03-07T03:07:50;95449.03;;;7.61;100.00
11676;BME280;5894;42.768;23.404;2024-03-07T03:10:21;95448.47;;;7.64;100.00
11676;BME280;5894;42.768;23.404;2024-03-07T03:12:53;95451.63;;;7.47;100.00
11676;BME280;5894;42.768;23.404;2024-03-07T03:15:21;95425.44;;;7.23;100.00
11676;BME280;5894;42.768;23.404;2024-03-07T03:17:48;95455.34;;;7.41;100.00
11676;BME280;5894;42.768;23.404;2024-03-07T03:20:15;95450.97;;;7.36;100.00
11676;BME280;5894;42.768;23.404;2024-03-07T03:22:53;95458.13;;;7.31;100.00
11676;BME280;5894;42.768;23.404;2024-03-07T03:25:20;95460.03;;;7.25;100.00
11676;BME280;5894;42.768;23.404;2024-03-07T03:27:49;95455.91;;;7.38;100.00
11676;BME280;5894;42.768;23.404;2024-03-07T03:30:17;95456.97;;;7.18;100.00
11676;BME280;5894;42.768;23.404;2024-03-07T03:32:46;95453.50;;;7.23;100.00
11676;BME280;5894;42.768;23.404;2024-03-07T03:35:14;95443.94;;;7.13;100.00
11676;BME280;5894;42.768;23.404;2024-03-07T03:37:42;95444.84;;;7.04;100.00
11676;BME280;5894;42.768;23.404;2024-03-07T03:40:10;95397.78;;;6.70;100.00
11676;BME280;5894;42.768;23.404;2024-03-07T03:42:38;95446.56;;;6.89;100.00
11676;BME280;5894;42.768;23.404;2024-03-07T03:45:07;95446.03;;;6.92;100.00
11676;BME280;5894;42.768;23.404;2024-03-07T03:47:42;95467.88;;;6.83;100.00
11676;BME280;5894;42.768;23.404;2024-03-07T03:50:11;95472.63;;;6.81;100.00
11676;BME280;5894;42.768;23.404;2024-03-07T03:52:39;95475.75;;;6.83;100.00
11676;BME280;5894;42.768;23.404;2024-03-07T03:55:07;95468.31;;;6.66;100.00
11676;BME280;5894;42.768;23.404;2024-03-07T03:57:37;95459.97;;;6.64;100.00
11676;BME280;5894;42.768;23.404;2024-03-07T04:00:06;95440.19;;;6.53;100.00
11676;BME280;5894;42.768;23.404;2024-03-07T04:02:41;95435.31;;;6.41;100.00
11676;BME280;5894;42.768;23.404;2024-03-07T04:05:08;95422.16;;;6.22;100.00
11676;BME280;5894;42.768;23.404;2024-03-07T04:07:36;95405.84;;;6.02;100.00
11676;BME280;5894;42.768;23.404;2024-03-07T04:10:05;95428.97;;;6.18;100.00
11676;BME280;5894;42.768;23.404;2024-03-07T04:12:33;95426.47;;;6.08;100.00
11676;BME280;5894;42.768;23.404;2024-03-07T04:15:00;95433.34;;;5.99;100.00
11676;BME280;5894;42.768;23.404;2024-03-07T04:17:30;95430.75;;;5.94;100.00
11676;BME280;5894;42.768;23.404;2024-03-07T04:20:01;95385.50;;;5.60;100.00
11676;BME280;5894;42.768;23.404;2024-03-07T04:22:30;95432.31;;;5.95;100.00
11676;BME280;5894;42.768;23.404;2024-03-07T04:24:58;95428.09;;;5.99;100.00
11676;BME280;5894;42.768;23.404;2024-03-07T04:27:27;95436.41;;;6.06;100.00
11676;BME280;5894;42.768;23.404;2024-03-07T04:29:54;95439.56;;;6.03;100.00
11676;BME280;5894;42.768;23.404;2024-03-07T04:32:21;95444.88;;;5.98;100.00
11676;BME280;5894;42.768;23.404;2024-03-07T04:34:49;95442.78;;;5.95;100.00
11676;BME280;5894;42.768;23.404;2024-03-07T04:37:17;95447.81;;;5.92;100.00
11676;BME280;5894;42.768;23.404;2024-03-07T04:39:44;95442.97;;;6.04;100.00
11676;BME280;5894;42.768;23.404;2024-03-07T04:42:12;95436.75;;;6.00;100.00
11676;BME280;5894;42.768;23.404;2024-03-07T04:44:39;95443.22;;;6.07;100.00
11676;BME280;5894;42.768;23.404;2024-03-07T04:47:06;95439.00;;;6.11;100.00
11676;BME280;5894;42.768;23.404;2024-03-07T04:49:34;95444.53;;;6.05;100.00
11676;BME280;5894;42.768;23.404;2024-03-07T04:52:03;95435.91;;;6.04;100.00
11676;BME280;5894;42.768;23.404;2024-03-07T04:54:32;95432.97;;;6.11;100.00
11676;BME280;5894;42.768;23.404;2024-03-07T04:56:59;95433.28;;;6.04;100.00
11676;BME280;5894;42.768;23.404;2024-03-07T04:59:26;95437.78;;;5.99;100.00
11676;BME280;5894;42.768;23.404;2024-03-07T05:01:54;95433.56;;;6.03;100.00
11676;BME280;5894;42.768;23.404;2024-03-07T05:04:22;95441.13;;;6.04;100.00
11676;BME280;5894;42.768;23.404;2024-03-07T05:06:55;95451.84;;;6.08;100.00
11676;BME280;5894;42.768;23.404;2024-03-07T05:09:23;95457.59;;;6.10;100.00
11676;BME280;5894;42.768;23.404;2024-03-07T05:11:53;95456.56;;;6.06;100.00
11676;BME280;5894;42.768;23.404;2024-03-07T05:14:21;95459.19;;;6.06;100.00
11676;BME280;5894;42.768;23.404;2024-03-07T05:16:48;95444.69;;;5.89;100.00
11676;BME280;5894;42.768;23.404;2024-03-07T05:19:31;95470.25;;;5.98;100.00
11676;BME280;5894;42.768;23.404;2024-03-07T05:21:58;95460.84;;;5.97;100.00
11676;BME280;5894;42.768;23.404;2024-03-07T05:24:25;95460.84;;;5.97;100.00
11676;BME280;5894;42.768;23.404;2024-03-07T05:26:54;95457.72;;;5.95;100.00
11676;BME280;5894;42.768;23.404;2024-03-07T05:29:22;95462.16;;;5.94;100.00
11676;BME280;5894;42.768;23.404;2024-03-07T05:31:49;95465.56;;;5.95;100.00
11676;BME280;5894;42.768;23.404;2024-03-07T05:34:16;95458.50;;;5.95;100.00
11676;BME280;5894;42.768;23.404;2024-03-07T05:36:45;95460.03;;;6.01;100.00
11676;BME280;5894;42.768;23.404;2024-03-07T05:39:12;95472.28;;;6.06;100.00
11676;BME280;5894;42.768;23.404;2024-03-07T05:41:39;95471.22;;;6.07;100.00
11676;BME280;5894;42.768;23.404;2024-03-07T05:44:08;95479.09;;;6.07;100.00
11676;BME280;5894;42.768;23.404;2024-03-07T05:46:36;95485.63;;;6.09;100.00
11676;BME280;5894;42.768;23.404;2024-03-07T05:49:07;95479.84;;;6.12;100.00
11676;BME280;5894;42.768;23.404;2024-03-07T05:51:35;95474.78;;;6.21;100.00
11676;BME280;5894;42.768;23.404;2024-03-07T05:54:03;95469.41;;;6.07;100.00
11676;BME280;5894;42.768;23.404;2024-03-07T05:56:32;95470.59;;;6.20;100.00
11676;BME280;5894;42.768;23.404;2024-03-07T05:59:01;95479.28;;;6.15;100.00
11676;BME280;5894;42.768;23.404;2024-03-07T06:01:32;95481.09;;;6.15;100.00
11676;BME280;5894;42.768;23.404;2024-03-07T06:04:00;95478.22;;;6.16;100.00
11676;BME280;5894;42.768;23.404;2024-03-07T06:06:28;95477.13;;;6.22;100.00
11676;BME280;5894;42.768;23.404;2024-03-07T06:08:58;95479.94;;;6.31;100.00
11676;BME280;5894;42.768;23.404;2024-03-07T06:11:25;95480.72;;;6.32;100.00
11676;BME280;5894;42.768;23.404;2024-03-07T06:13:52;95488.00;;;6.35;100.00
11676;BME280;5894;42.768;23.404;2024-03-07T06:16:19;95496.66;;;6.35;100.00
11676;BME280;5894;42.768;23.404;2024-03-07T06:18:48;95468.50;;;6.22;100.00
11676;BME280;5894;42.768;23.404;2024-03-07T06:21:15;95497.41;;;6.41;100.00
11676;BME280;5894;42.768;23.404;2024-03-07T06:23:42;95495.03;;;6.39;100.00
11676;BME280;5894;42.768;23.404;2024-03-07T06:26:13;95499.94;;;6.46;100.00
11676;BME280;5894;42.768;23.404;2024-03-07T06:28:42;95497.75;;;6.58;100.00
11676;BME280;5894;42.768;23.404;2024-03-07T06:31:12;95509.06;;;6.53;100.00
11676;BME280;5894;42.768;23.404;2024-03-07T06:33:39;95510.59;;;6.54;100.00
11676;BME280;5894;42.768;23.404;2024-03-07T06:36:07;95519.66;;;6.43;100.00
11676;BME280;5894;42.768;23.404;2024-03-07T06:38:35;95515.66;;;6.46;100.00
11676;BME280;5894;42.768;23.404;2024-03-07T06:41:02;95527.69;;;6.52;100.00
11676;BME280;5894;42.768;23.404;2024-03-07T06:43:30;95525.06;;;6.52;100.00
11676;BME280;5894;42.768;23.404;2024-03-07T06:45:57;95511.69;;;6.53;100.00
11676;BME280;5894;42.768;23.404;2024-03-07T06:48:24;95500.91;;;6.55;100.00
11676;BME280;5894;42.768;23.404;2024-03-07T06:50:51;95501.47;;;6.52;100.00
11676;BME280;5894;42.768;23.404;2024-03-07T06:53:19;95493.28;;;6.58;100.00
11676;BME280;5894;42.768;23.404;2024-03-07T06:55:51;95450.97;;;6.17;100.00
11676;BME280;5894;42.768;23.404;2024-03-07T06:58:19;95493.84;;;6.55;100.00
11676;BME280;5894;42.768;23.404;2024-03-07T07:00:47;95509.84;;;6.54;100.00
11676;BME280;5894;42.768;23.404;2024-03-07T07:03:14;95508.47;;;6.61;100.00
11676;BME280;5894;42.768;23.404;2024-03-07T07:05:42;95482.13;;;6.48;100.00
11676;BME280;5894;42.768;23.404;2024-03-07T07:08:11;95509.75;;;6.64;100.00
11676;BME280;5894;42.768;23.404;2024-03-07T07:10:40;95519.50;;;6.58;100.00
11676;BME280;5894;42.768;23.404;2024-03-07T07:13:08;95518.44;;;6.59;100.00
11676;BME280;5894;42.768;23.404;2024-03-07T07:15:36;95484.84;;;6.38;100.00
11676;BME280;5894;42.768;23.404;2024-03-07T07:18:04;95520.03;;;6.55;100.00
11676;BME280;5894;42.768;23.404;2024-03-07T07:20:33;95507.59;;;6.42;100.00
11676;BME280;5894;42.768;23.404;2024-03-07T07:23:00;95505.97;;;6.46;100.00
11676;BME280;5894;42.768;23.404;2024-03-07T07:25:29;95496.28;;;6.47;100.00
11676;BME280;5894;42.768;23.404;2024-03-07T07:27:57;95491.59;;;6.44;100.00
11676;BME280;5894;42.768;23.404;2024-03-07T07:30:24;95494.84;;;6.59;100.00
11676;BME280;5894;42.768;23.404;2024-03-07T07:32:53;95489.19;;;6.47;100.00
11676;BME280;5894;42.768;23.404;2024-03-07T07:35:20;95494.34;;;6.57;100.00
11676;BME280;5894;42.768;23.404;2024-03-07T07:37:48;95496.44;;;6.55;100.00
11676;BME280;5894;42.768;23.404;2024-03-07T07:40:18;95500.63;;;6.56;100.00
11676;BME280;5894;42.768;23.404;2024-03-07T07:42:47;95502.22;;;6.57;100.00
11676;BME280;5894;42.768;23.404;2024-03-07T07:45:16;95502.34;;;6.71;100.00
11676;BME280;5894;42.768;23.404;2024-03-07T07:47:44;95514.13;;;6.74;100.00
11676;BME280;5894;42.768;23.404;2024-03-07T07:50:13;95497.91;;;6.67;100.00
11676;BME280;5894;42.768;23.404;2024-03-07T07:52:45;95495.25;;;6.72;100.00
11676;BME280;5894;42.768;23.404;2024-03-07T07:55:14;95495.66;;;6.84;100.00
11676;BME280;5894;42.768;23.404;2024-03-07T07:57:42;95487.22;;;6.87;100.00
11676;BME280;5894;42.768;23.404;2024-03-07T08:00:14;95485.84;;;6.94;100.00
11676;BME280;5894;42.768;23.404;2024-03-07T08:02:50;95479.88;;;6.89;100.00
11676;BME280;5894;42.768;23.404;2024-03-07T08:05:18;95483.53;;;6.88;100.00
11676;BME280;5894;42.768;23.404;2024-03-07T08:07:45;95488.94;;;6.96;100.00
11676;BME280;5894;42.768;23.404;2024-03-07T08:10:14;95495.47;;;6.99;100.00
11676;BME280;5894;42.768;23.404;2024-03-07T08:12:41;95493.59;;;7.05;100.00
11676;BME280;5894;42.768;23.404;2024-03-07T08:15:09;95490.06;;;7.14;100.00
11676;BME280;5894;42.768;23.404;2024-03-07T08:17:40;95494.31;;;7.10;100.00
11676;BME280;5894;42.768;23.404;2024-03-07T08:20:13;95496.16;;;7.10;100.00
11676;BME280;5894;42.768;23.404;2024-03-07T08:22:41;95496.69;;;7.07;100.00
11676;BME280;5894;42.768;23.404;2024-03-07T08:25:09;95503.72;;;7.11;100.00
11676;BME280;5894;42.768;23.404;2024-03-07T08:27:37;95503.31;;;7.04;100.00
11676;BME280;5894;42.768;23.404;2024-03-07T08:30:05;95505.53;;;7.16;100.00
11676;BME280;5894;42.768;23.404;2024-03-07T08:32:34;95515.25;;;7.15;100.00
11676;BME280;5894;42.768;23.404;2024-03-07T08:35:04;95521.94;;;7.26;100.00
11676;BME280;5894;42.768;23.404;2024-03-07T08:37:37;95527.38;;;7.30;100.00
11676;BME280;5894;42.768;23.404;2024-03-07T08:40:05;95527.31;;;7.35;100.00
11676;BME280;5894;42.768;23.404;2024-03-07T08:42:33;95539.06;;;7.37;100.00
11676;BME280;5894;42.768;23.404;2024-03-07T08:45:01;95541.03;;;7.51;100.00
11676;BME280;5894;42.768;23.404;2024-03-07T08:47:30;95522.28;;;7.38;100.00
11676;BME280;5894;42.768;23.404;2024-03-07T08:49:58;95550.09;;;7.58;100.00
11676;BME280;5894;42.768;23.404;2024-03-07T08:52:25;95551.84;;;7.68;100.00
11676;BME280;5894;42.768;23.404;2024-03-07T08:54:54;95558.72;;;7.64;100.00
11676;BME280;5894;42.768;23.404;2024-03-07T08:57:22;95556.75;;;7.74;100.00
11676;BME280;5894;42.768;23.404;2024-03-07T08:59:50;95556.00;;;7.69;100.00
11676;BME280;5894;42.768;23.404;2024-03-07T09:02:17;95564.66;;;7.69;100.00
11676;BME280;5894;42.768;23.404;2024-03-07T09:04:44;95563.88;;;7.69;100.00
11676;BME280;5894;42.768;23.404;2024-03-07T09:07:11;95563.00;;;7.79;100.00
11676;BME280;5894;42.768;23.404;2024-03-07T09:09:40;95564.25;;;7.81;100.00
11676;BME280;5894;42.768;23.404;2024-03-07T09:12:11;95565.03;;;7.82;100.00
11676;BME280;5894;42.768;23.404;2024-03-07T09:14:38;95559.91;;;7.90;100.00
11676;BME280;5894;42.768;23.404;2024-03-07T09:17:05;95549.22;;;7.68;100.00
11676;BME280;5894;42.768;23.404;2024-03-07T09:19:32;95562.28;;;7.92;100.00
11676;BME280;5894;42.768;23.404;2024-03-07T09:22:00;95562.00;;;7.93;100.00
11676;BME280;5894;42.768;23.404;2024-03-07T09:24:30;95562.34;;;8.05;100.00
11676;BME280;5894;42.768;23.404;2024-03-07T09:26:57;95556.72;;;8.12;100.00
11676;BME280;5894;42.768;23.404;2024-03-07T09:29:26;95566.13;;;8.18;100.00
11676;BME280;5894;42.768;23.404;2024-03-07T09:31:53;95585.75;;;8.21;100.00
11676;BME280;5894;42.768;23.404;2024-03-07T09:34:24;95572.28;;;8.27;100.00
11676;BME280;5894;42.768;23.404;2024-03-07T09:36:51;95518.63;;;7.96;100.00
11676;BME280;5894;42.768;23.404;2024-03-07T09:39:20;95576.13;;;8.35;100.00
11676;BME280;5894;42.768;23.404;2024-03-07T09:41:49;95548.06;;;8.30;100.00
11676;BME280;5894;42.768;23.404;2024-03-07T09:44:18;95568.38;;;8.43;100.00
11676;BME280;5894;42.768;23.404;2024-03-07T09:46:50;95565.41;;;8.64;100.00
11676;BME280;5894;42.768;23.404;2024-03-07T09:49:18;95571.94;;;8.66;100.00
11676;BME280;5894;42.768;23.404;2024-03-07T09:51:47;95577.59;;;8.73;100.00
11676;BME280;5894;42.768;23.404;2024-03-07T09:54:13;95566.63;;;8.71;100.00
11676;BME280;5894;42.768;23.404;2024-03-07T09:56:41;95570.09;;;8.67;100.00
11676;BME280;5894;42.768;23.404;2024-03-07T09:59:11;95574.56;;;8.66;100.00
11676;BME280;5894;42.768;23.404;2024-03-07T10:01:39;95562.72;;;8.69;100.00
11676;BME280;5894;42.768;23.404;2024-03-07T10:04:12;95572.78;;;8.80;100.00
11676;BME280;5894;42.768;23.404;2024-03-07T10:06:40;95520.53;;;8.60;100.00
11676;BME280;5894;42.768;23.404;2024-03-07T10:09:07;95563.44;;;9.02;100.00
11676;BME280;5894;42.768;23.404;2024-03-07T10:11:34;95565.19;;;8.93;100.00
11676;BME280;5894;42.768;23.404;2024-03-07T10:14:02;95562.06;;;9.04;100.00
11676;BME280;5894;42.768;23.404;2024-03-07T10:16:30;95561.50;;;9.07;100.00
11676;BME280;5894;42.768;23.404;2024-03-07T10:18:58;95564.06;;;9.12;100.00
11676;BME280;5894;42.768;23.404;2024-03-07T10:21:27;95561.09;;;9.14;100.00
11676;BME280;5894;42.768;23.404;2024-03-07T10:24:04;95508.50;;;8.87;100.00
11676;BME280;5894;42.768;23.404;2024-03-07T10:26:34;95552.75;;;9.12;100.00
11676;BME280;5894;42.768;23.404;2024-03-07T10:29:01;95541.53;;;9.06;100.00
11676;BME280;5894;42.768;23.404;2024-03-07T10:31:29;95524.75;;;9.16;100.00
11676;BME280;5894;42.768;23.404;2024-03-07T10:33:59;95521.47;;;9.10;100.00
11676;BME280;5894;42.768;23.404;2024-03-07T10:36:29;95506.34;;;9.16;100.00
11676;BME280;5894;42.768;23.404;2024-03-07T10:38:57;95520.41;;;9.11;100.00
11676;BME280;5894;42.768;23.404;2024-03-07T10:41:45;95506.53;;;9.06;100.00
11676;BME280;5894;42.768;23.404;2024-03-07T10:44:19;95533.53;;;9.25;100.00
11676;BME280;5894;42.768;23.404;2024-03-07T10:46:52;95525.56;;;9.30;100.00
11676;BME280;5894;42.768;23.404;2024-03-07T10:49:20;95534.81;;;9.28;100.00
11676;BME280;5894;42.768;23.404;2024-03-07T10:52:02;95524.28;;;9.28;100.00
11676;BME280;5894;42.768;23.404;2024-03-07T10:54:36;95529.34;;;9.38;100.00
11676;BME280;5894;42.768;23.404;2024-03-07T10:57:20;95521.34;;;9.43;100.00
11676;BME280;5894;42.768;23.404;2024-03-07T10:59:50;95525.44;;;9.35;100.00
11676;BME280;5894;42.768;23.404;2024-03-07T11:02:33;95531.19;;;9.37;100.00
11676;BME280;5894;42.768;23.404;2024-03-07T11:05:04;95525.22;;;9.45;100.00
11676;BME280;5894;42.768;23.404;2024-03-07T11:07:39;95493.47;;;9.28;100.00
11676;BME280;5894;42.768;23.404;2024-03-07T11:10:08;95517.94;;;9.42;100.00
11676;BME280;5894;42.768;23.404;2024-03-07T11:12:38;95513.84;;;9.50;100.00
11676;BME280;5894;42.768;23.404;2024-03-07T11:15:09;95508.84;;;9.48;100.00
11676;BME280;5894;42.768;23.404;2024-03-07T11:17:41;95510.91;;;9.51;100.00
11676;BME280;5894;42.768;23.404;2024-03-07T11:20:21;95513.63;;;9.46;100.00
11676;BME280;5894;42.768;23.404;2024-03-07T11:22:51;95515.31;;;9.42;100.00
11676;BME280;5894;42.768;23.404;2024-03-07T11:25:19;95513.38;;;9.34;100.00
11676;BME280;5894;42.768;23.404;2024-03-07T11:27:56;95516.47;;;9.36;100.00
11676;BME280;5894;42.768;23.404;2024-03-07T11:30:24;95514.25;;;9.43;100.00
11676;BME280;5894;42.768;23.404;2024-03-07T11:32:51;95518.03;;;9.37;100.00
11676;BME280;5894;42.768;23.404;2024-03-07T11:35:20;95520.56;;;9.42;100.00
11676;BME280;5894;42.768;23.404;2024-03-07T11:37:58;95506.63;;;9.42;100.00
11676;BME280;5894;42.768;23.404;2024-03-07T11:40:44;95511.28;;;9.45;100.00
11676;BME280;5894;42.768;23.404;2024-03-07T11:43:14;95506.16;;;9.40;100.00
11676;BME280;5894;42.768;23.404;2024-03-07T11:45:41;95505.84;;;9.28;100.00
11676;BME280;5894;42.768;23.404;2024-03-07T11:48:13;95498.75;;;9.28;100.00
11676;BME280;5894;42.768;23.404;2024-03-07T11:50:41;95496.69;;;9.25;100.00
11676;BME280;5894;42.768;23.404;2024-03-07T11:53:10;95505.94;;;9.36;100.00
11676;BME280;5894;42.768;23.404;2024-03-07T11:55:38;95507.41;;;9.29;100.00
11676;BME280;5894;42.768;23.404;2024-03-07T11:58:12;95497.97;;;9.28;100.00
11676;BME280;5894;42.768;23.404;2024-03-07T12:00:40;95501.09;;;9.30;100.00
11676;BME280;5894;42.768;23.404;2024-03-07T12:03:11;95502.94;;;9.29;100.00
11676;BME280;5894;42.768;23.404;2024-03-07T12:05:42;95492.50;;;9.24;100.00
11676;BME280;5894;42.768;23.404;2024-03-07T12:08:11;95497.75;;;9.24;100.00
11676;BME280;5894;42.768;23.404;2024-03-07T12:10:39;95501.50;;;9.23;100.00
11676;BME280;5894;42.768;23.404;2024-03-07T12:13:09;95501.69;;;9.13;100.00
11676;BME280;5894;42.768;23.404;2024-03-07T12:15:38;95491.38;;;9.03;100.00
11676;BME280;5894;42.768;23.404;2024-03-07T12:18:06;95468.84;;;8.83;100.00
11676;BME280;5894;42.768;23.404;2024-03-07T12:20:40;95502.84;;;9.07;100.00
11676;BME280;5894;42.768;23.404;2024-03-07T12:23:15;95498.38;;;9.07;100.00
11676;BME280;5894;42.768;23.404;2024-03-07T12:25:45;95493.69;;;9.04;100.00
11676;BME280;5894;42.768;23.404;2024-03-07T12:28:14;95494.94;;;9.07;100.00
11676;BME280;5894;42.768;23.404;2024-03-07T12:30:50;95443.13;;;8.66;100.00
11676;BME280;5894;42.768;23.404;2024-03-07T12:33:17;95478.88;;;8.95;100.00
11676;BME280;5894;42.768;23.404;2024-03-07T12:35:46;95489.88;;;8.97;100.00
11676;BME280;5894;42.768;23.404;2024-03-07T12:38:14;95480.63;;;8.86;100.00
11676;BME280;5894;42.768;23.404;2024-03-07T12:40:43;95486.19;;;8.84;100.00
11676;BME280;5894;42.768;23.404;2024-03-07T12:43:16;95441.00;;;8.68;100.00
11676;BME280;5894;42.768;23.404;2024-03-07T12:45:50;95479.16;;;8.93;100.00
11676;BME280;5894;42.768;23.404;2024-03-07T12:48:18;95480.72;;;8.94;100.00
11676;BME280;5894;42.768;23.404;2024-03-07T12:50:47;95444.91;;;8.71;100.00
11676;BME280;5894;42.768;23.404;2024-03-07T12:53:20;95482.69;;;8.89;100.00
11676;BME280;5894;42.768;23.404;2024-03-07T12:55:47;95480.25;;;8.92;100.00
11676;BME280;5894;42.768;23.404;2024-03-07T12:58:15;95465.75;;;8.81;100.00
11676;BME280;5894;42.768;23.404;2024-03-07T13:00:42;95488.03;;;8.83;100.00
11676;BME280;5894;42.768;23.404;2024-03-07T13:03:09;95484.31;;;8.84;100.00
11676;BME280;5894;42.768;23.404;2024-03-07T13:05:39;95479.53;;;8.73;100.00
11676;BME280;5894;42.768;23.404;2024-03-07T13:08:08;95480.81;;;8.75;100.00